createdAt,value
2019-03-22T00:00:43.634Z,64.37
2019-03-22T00:03:09.716Z,64.54
2019-03-22T00:05:35.566Z,64.90
2019-03-22T00:08:01.386Z,65.08
2019-03-22T00:10:27.655Z,65.18
2019-03-22T00:12:53.500Z,65.26
2019-03-22T00:15:21.149Z,65.44
2019-03-22T00:17:47.276Z,65.69
2019-03-22T00:20:16.065Z,65.90
2019-03-22T00:22:42.216Z,65.70
2019-03-22T00:25:11.023Z,65.48
2019-03-22T00:27:37.150Z,65.67
2019-03-22T00:30:07.170Z,65.80
2019-03-22T00:32:33.002Z,65.66
2019-03-22T00:34:58.824Z,65.31
2019-03-22T00:37:24.690Z,65.32
2019-03-22T00:39:50.772Z,65.75
2019-03-22T00:42:16.583Z,66.16
2019-03-22T00:44:42.381Z,66.68
2019-03-22T00:47:11.219Z,66.81
2019-03-22T00:49:37.034Z,66.50
2019-03-22T00:52:08.613Z,66.79
2019-03-22T00:54:34.421Z,66.56
2019-03-22T00:57:00.315Z,66.52
2019-03-22T00:59:26.122Z,67.01
2019-03-22T01:01:55.357Z,67.50
2019-03-22T01:04:21.185Z,67.62
2019-03-22T01:06:47.269Z,67.33
2019-03-22T01:09:13.097Z,67.33
2019-03-22T01:11:38.940Z,67.51
2019-03-22T01:14:07.894Z,67.18
2019-03-22T01:16:33.967Z,67.21
2019-03-22T01:19:02.824Z,67.35
2019-03-22T01:21:28.969Z,67.40
2019-03-22T01:23:59.913Z,67.55
2019-03-22T01:26:26.146Z,67.76
2019-03-22T01:28:52.247Z,67.68
2019-03-22T01:31:18.186Z,67.94
2019-03-22T01:33:47.048Z,68.03
2019-03-22T01:36:12.970Z,68.12
2019-03-22T01:38:41.833Z,68.43
2019-03-22T01:41:07.952Z,68.63
2019-03-22T01:43:33.835Z,68.15
2019-03-22T01:45:59.610Z,68.27
2019-03-22T01:48:25.727Z,68.23
2019-03-22T01:50:54.385Z,68.24
2019-03-22T01:53:20.256Z,68.35
2019-03-22T01:55:47.219Z,68.61
2019-03-22T01:58:13.309Z,68.75
2019-03-22T02:00:44.318Z,69.16
2019-03-22T02:03:10.395Z,69.28
2019-03-22T02:05:36.429Z,69.38
2019-03-22T02:08:02.249Z,69.53
2019-03-22T02:10:33.261Z,69.64
2019-03-22T02:15:25.686Z,69.97
2019-03-22T02:17:51.533Z,69.87
2019-03-22T02:20:39.211Z,70.00
2019-03-22T02:23:05.061Z,70.19
2019-03-22T02:25:31.241Z,70.07
2019-03-22T02:28:04.014Z,70.12
2019-03-22T02:30:25.167Z,70.07
2019-03-22T02:32:50.978Z,69.95
2019-03-22T02:35:28.391Z,69.89
2019-03-22T02:37:44.853Z,69.90
2019-03-22T02:40:11.577Z,70.08
2019-03-22T02:42:37.381Z,69.72
2019-03-22T02:45:08.946Z,69.56
2019-03-22T02:47:35.199Z,69.38
2019-03-22T02:50:11.603Z,69.55
2019-03-22T02:52:29.062Z,69.87
2019-03-22T02:54:54.870Z,70.46
2019-03-22T02:57:20.705Z,70.21
2019-03-22T02:59:46.495Z,70.32
2019-03-22T03:02:12.502Z,70.29
2019-03-22T03:04:38.393Z,70.55
2019-03-22T03:07:04.216Z,70.85
2019-03-22T03:09:30.273Z,70.45
2019-03-22T03:11:56.442Z,70.47
2019-03-22T03:14:22.601Z,70.37
2019-03-22T03:16:48.465Z,70.18
2019-03-22T03:19:14.549Z,70.29
2019-03-22T03:21:40.437Z,70.22
2019-03-22T03:24:06.211Z,70.14
2019-03-22T03:26:32.335Z,70.34
2019-03-22T03:28:58.155Z,70.28
2019-03-22T03:31:23.992Z,70.60
2019-03-22T03:33:50.086Z,71.20
2019-03-22T03:36:16.026Z,71.49
2019-03-22T03:38:41.812Z,71.91
2019-03-22T03:41:08.948Z,71.66
2019-03-22T03:43:34.788Z,71.50
2019-03-22T03:46:05.766Z,71.42
2019-03-22T03:48:31.706Z,71.39
2019-03-22T03:51:00.283Z,71.51
2019-03-22T03:53:26.141Z,71.45
2019-03-22T03:55:54.975Z,71.25
2019-03-22T03:58:21.223Z,70.99
2019-03-22T04:00:50.184Z,71.01
2019-03-22T04:03:16.271Z,71.46
2019-03-22T04:05:42.389Z,71.45
2019-03-22T04:08:08.461Z,71.86
2019-03-22T04:10:34.267Z,72.24
2019-03-22T04:13:00.116Z,72.17
2019-03-22T04:15:26.310Z,71.99
2019-03-22T04:17:55.226Z,71.82
2019-03-22T04:20:21.073Z,71.85
2019-03-22T04:22:49.867Z,71.65
2019-03-22T04:25:15.749Z,71.65
2019-03-22T04:27:44.651Z,71.86
2019-03-22T04:30:10.798Z,71.56
2019-03-22T04:32:39.764Z,71.60
2019-03-22T04:35:07.044Z,72.35
2019-03-22T04:37:32.900Z,73.00
2019-03-22T04:39:59.013Z,72.87
2019-03-22T04:42:27.797Z,72.88
2019-03-22T04:44:53.641Z,72.79
2019-03-22T04:47:19.585Z,72.67
2019-03-22T04:49:46.620Z,72.72
2019-03-22T04:52:12.632Z,72.90
2019-03-22T04:54:42.710Z,72.39
2019-03-22T04:57:09.982Z,72.56
2019-03-22T04:59:36.940Z,73.21
2019-03-22T05:02:03.463Z,73.12
2019-03-22T05:04:33.960Z,72.71
2019-03-22T05:07:00.388Z,72.90
2019-03-22T05:09:27.703Z,73.01
2019-03-22T05:11:54.723Z,72.83
2019-03-22T05:14:21.078Z,72.81
2019-03-22T05:16:47.895Z,72.70
2019-03-22T05:19:35.876Z,72.80
2019-03-22T05:22:02.534Z,72.70
2019-03-22T05:24:28.996Z,72.82
2019-03-22T05:26:56.228Z,72.73
2019-03-22T05:29:30.442Z,72.82
2019-03-22T05:31:57.632Z,72.81
2019-03-22T05:34:23.759Z,72.78
2019-03-22T05:36:49.583Z,72.66
2019-03-22T05:39:15.403Z,72.84
2019-03-22T05:41:41.526Z,73.34
2019-03-22T05:44:07.345Z,73.68
2019-03-22T05:46:33.156Z,73.70
2019-03-22T05:48:58.954Z,73.19
2019-03-22T05:51:24.781Z,73.35
2019-03-22T05:53:50.578Z,73.35
2019-03-22T05:56:16.416Z,73.27
2019-03-22T05:58:42.227Z,73.27
2019-03-22T06:01:08.055Z,72.88
2019-03-22T06:03:34.185Z,72.52
2019-03-22T06:06:00.249Z,71.71
2019-03-22T06:08:26.069Z,70.66
2019-03-22T06:10:52.177Z,70.75
2019-03-22T06:13:18.015Z,70.31
2019-03-22T06:15:43.851Z,70.85
2019-03-22T06:18:09.639Z,71.05
2019-03-22T06:20:35.476Z,70.34
2019-03-22T06:23:01.273Z,69.35
2019-03-22T06:25:27.365Z,69.98
2019-03-22T06:27:53.455Z,70.43
2019-03-22T06:30:19.615Z,70.15
2019-03-22T06:32:45.445Z,69.63
2019-03-22T06:35:11.659Z,68.85
2019-03-22T06:37:37.454Z,68.51
2019-03-22T06:40:04.658Z,68.48
2019-03-22T06:42:30.532Z,68.86
2019-03-22T06:44:56.354Z,68.32
2019-03-22T06:47:22.195Z,66.86
2019-03-22T06:49:51.103Z,65.54
2019-03-22T06:52:17.159Z,65.45
2019-03-22T06:54:46.120Z,65.46
2019-03-22T06:57:12.245Z,64.65
2019-03-22T06:59:41.623Z,63.41
2019-03-22T07:02:07.466Z,62.30
2019-03-22T07:04:34.491Z,61.27
2019-03-22T07:07:00.343Z,60.37
2019-03-22T07:09:31.210Z,59.80
2019-03-22T07:11:57.008Z,58.11
2019-03-22T07:14:22.849Z,56.54
2019-03-22T07:16:48.749Z,53.69
2019-03-22T07:19:14.618Z,51.28
2019-03-22T07:21:43.454Z,49.40
2019-03-22T07:24:09.330Z,46.94
2019-03-22T07:26:38.289Z,46.17
2019-03-22T07:29:05.418Z,46.55
2019-03-22T07:31:31.394Z,46.61
2019-03-22T07:33:57.219Z,46.05
2019-03-22T07:36:26.138Z,46.23
2019-03-22T07:38:51.954Z,46.38
2019-03-22T07:41:20.931Z,45.43
2019-03-22T07:43:47.026Z,44.73
2019-03-22T07:46:15.899Z,44.68
2019-03-22T07:48:41.714Z,44.15
2019-03-22T07:51:07.531Z,44.61
2019-03-22T07:53:33.361Z,44.64
2019-03-22T07:55:59.444Z,43.24
2019-03-22T07:58:26.666Z,41.54
2019-03-22T08:00:52.461Z,40.28
2019-03-22T08:03:21.599Z,40.27
2019-03-22T08:05:51.489Z,40.07
2019-03-22T08:08:18.526Z,40.21
2019-03-22T08:10:44.411Z,39.58
2019-03-22T08:13:10.214Z,39.43
2019-03-22T08:15:36.083Z,39.74
2019-03-22T08:18:05.528Z,39.37
2019-03-22T08:20:31.327Z,37.51
2019-03-22T08:23:04.051Z,37.51
2019-03-22T08:25:32.308Z,35.56
2019-03-22T08:27:57.922Z,35.56
2019-03-22T08:30:23.744Z,35.34
2019-03-22T08:32:50.564Z,34.80
2019-03-22T08:35:16.617Z,32.16
2019-03-22T08:37:52.057Z,33.08
2019-03-22T08:40:10.547Z,33.29
2019-03-22T08:42:36.664Z,33.60
2019-03-22T08:45:05.910Z,33.59
2019-03-22T08:47:34.225Z,34.00
2019-03-22T08:49:59.745Z,35.10
2019-03-22T08:52:25.542Z,35.46
2019-03-22T08:54:51.395Z,36.88
2019-03-22T08:57:17.171Z,37.43
2019-03-22T08:59:45.858Z,37.74
2019-03-22T09:02:11.689Z,38.35
2019-03-22T09:04:37.829Z,39.41
2019-03-22T09:07:03.637Z,40.03
2019-03-22T09:09:40.998Z,40.09
2019-03-22T09:11:57.553Z,40.07
2019-03-22T09:14:23.355Z,39.92
2019-03-22T09:16:54.244Z,42.28
2019-03-22T09:19:20.058Z,39.21
2019-03-22T09:21:48.680Z,39.86
2019-03-22T09:24:14.517Z,40.04
2019-03-22T09:26:47.976Z,39.65
2019-03-22T09:29:10.862Z,38.67
2019-03-22T09:31:36.723Z,38.22
2019-03-22T09:34:02.890Z,38.25
2019-03-22T09:36:31.822Z,39.16
2019-03-22T09:38:57.770Z,38.53
2019-03-22T09:41:23.863Z,34.83
2019-03-22T09:43:49.689Z,35.98
2019-03-22T09:46:15.770Z,35.13
2019-03-22T09:48:44.965Z,35.11
2019-03-22T09:51:10.780Z,35.42
2019-03-22T09:53:39.698Z,35.52
2019-03-22T09:56:05.530Z,34.46
2019-03-22T09:58:34.323Z,33.43
2019-03-22T10:01:00.118Z,33.65
2019-03-22T10:03:28.733Z,35.18
2019-03-22T10:05:54.551Z,35.13
2019-03-22T10:08:23.514Z,34.61
2019-03-22T10:10:49.278Z,33.24
2019-03-22T10:13:17.953Z,31.52
2019-03-22T10:15:43.882Z,30.15
2019-03-22T10:18:09.740Z,31.35
2019-03-22T10:20:35.593Z,31.55
2019-03-22T10:23:01.365Z,29.83
2019-03-22T10:25:27.707Z,29.60
2019-03-22T10:27:53.933Z,30.33
2019-03-22T10:30:22.376Z,32.63
2019-03-22T10:32:48.218Z,33.32
2019-03-22T10:35:25.932Z,32.88
2019-03-22T10:37:45.367Z,30.81
2019-03-22T10:40:14.493Z,30.81
2019-03-22T10:42:40.631Z,31.91
2019-03-22T10:45:07.273Z,31.72
2019-03-22T10:47:33.168Z,31.13
2019-03-22T10:50:07.064Z,30.45
2019-03-22T10:52:33.012Z,29.11
2019-03-22T10:55:13.638Z,28.22
2019-03-22T10:57:26.554Z,28.58
2019-03-22T10:59:52.606Z,28.24
2019-03-22T11:02:18.430Z,28.36
2019-03-22T11:04:44.257Z,28.95
2019-03-22T11:07:10.113Z,29.17
2019-03-22T11:09:36.141Z,28.35
2019-03-22T11:12:12.155Z,28.81
2019-03-22T11:14:33.049Z,28.95
2019-03-22T11:16:58.869Z,29.09
2019-03-22T11:19:24.722Z,29.11
2019-03-22T11:21:53.652Z,28.68
2019-03-22T11:24:19.461Z,28.43
2019-03-22T11:26:47.195Z,30.88
2019-03-22T11:29:13.017Z,32.21
2019-03-22T11:31:40.176Z,32.35
2019-03-22T11:34:06.216Z,30.72
2019-03-22T11:36:32.017Z,30.51
2019-03-22T11:39:00.908Z,29.29
2019-03-22T11:41:26.719Z,29.30
2019-03-22T11:43:55.301Z,30.92
2019-03-22T11:46:21.347Z,29.23
2019-03-22T11:48:50.186Z,30.05
2019-03-22T11:51:16.025Z,29.78
2019-03-22T11:53:44.881Z,28.17
2019-03-22T11:56:10.699Z,28.87
2019-03-22T11:58:39.688Z,30.10
2019-03-22T12:01:05.631Z,31.45
2019-03-22T12:03:34.361Z,32.12
2019-03-22T12:06:00.426Z,33.02
2019-03-22T12:08:26.504Z,31.92
2019-03-22T12:10:52.644Z,32.39
2019-03-22T12:13:18.831Z,34.73
2019-03-22T12:15:44.962Z,31.13
2019-03-22T12:18:11.163Z,32.33
2019-03-22T12:20:40.087Z,33.72
2019-03-22T12:23:05.948Z,30.67
2019-03-22T12:25:33.500Z,31.25
2019-03-22T12:27:59.415Z,32.62
2019-03-22T12:30:28.159Z,32.47
2019-03-22T12:32:53.985Z,31.18
2019-03-22T12:35:24.766Z,32.33
2019-03-22T12:37:50.566Z,31.45
2019-03-22T12:40:20.443Z,30.67
2019-03-22T12:42:46.422Z,31.02
2019-03-22T12:45:22.374Z,30.95
2019-03-22T12:47:48.459Z,27.33
2019-03-22T12:50:15.233Z,29.33
2019-03-22T12:52:41.177Z,29.95
2019-03-22T12:55:08.587Z,29.13
2019-03-22T12:57:34.414Z,29.63
2019-03-22T13:00:00.505Z,30.66
2019-03-22T13:02:26.533Z,29.96
2019-03-22T13:04:52.332Z,29.62
2019-03-22T13:07:18.410Z,28.68
2019-03-22T13:09:44.489Z,29.88
2019-03-22T13:12:10.287Z,28.94
2019-03-22T13:14:36.117Z,29.55
2019-03-22T13:17:02.430Z,28.56
2019-03-22T13:19:28.567Z,30.07
2019-03-22T13:21:54.406Z,31.08
2019-03-22T13:24:20.245Z,29.58
2019-03-22T13:26:46.090Z,29.12
2019-03-22T13:29:14.593Z,28.15
2019-03-22T13:31:40.427Z,27.18
2019-03-22T13:34:11.389Z,27.62
2019-03-22T13:36:37.261Z,28.17
2019-03-22T13:39:07.251Z,28.10
2019-03-22T13:41:33.096Z,28.63
2019-03-22T13:43:58.990Z,29.41
2019-03-22T13:46:25.160Z,29.75
2019-03-22T13:48:54.030Z,29.80
2019-03-22T13:51:19.835Z,28.78
2019-03-22T13:53:48.405Z,27.62
2019-03-22T13:56:14.530Z,29.24
2019-03-22T13:58:40.376Z,28.59
2019-03-22T14:01:06.167Z,28.57
2019-03-22T14:03:33.196Z,28.57
2019-03-22T14:06:01.904Z,27.08
2019-03-22T14:08:27.985Z,27.88
2019-03-22T14:10:57.237Z,27.77
2019-03-22T14:13:23.046Z,28.75
2019-03-22T14:15:52.633Z,27.69
2019-03-22T14:18:18.493Z,27.79
2019-03-22T14:20:44.314Z,27.97
2019-03-22T14:23:10.241Z,27.86
2019-03-22T14:25:40.989Z,27.56
2019-03-22T14:28:06.824Z,27.75
2019-03-22T14:30:34.199Z,28.13
2019-03-22T14:33:00.282Z,27.80
2019-03-22T14:35:28.368Z,27.75
2019-03-22T14:37:54.107Z,27.17
2019-03-22T14:40:19.926Z,27.48
2019-03-22T14:42:46.030Z,27.89
2019-03-22T14:45:12.227Z,27.01
2019-03-22T14:47:42.950Z,27.42
2019-03-22T14:50:08.887Z,27.87
2019-03-22T14:52:37.880Z,27.80
2019-03-22T14:55:04.632Z,27.63
2019-03-22T14:57:30.478Z,28.65
2019-03-22T14:59:59.166Z,28.70
2019-03-22T15:02:27.128Z,28.86
2019-03-22T15:04:53.355Z,28.60
2019-03-22T15:07:20.041Z,27.87
2019-03-22T15:09:46.975Z,28.03
2019-03-22T15:12:13.139Z,27.71
2019-03-22T15:14:44.036Z,27.98
2019-03-22T15:17:28.428Z,28.03
2019-03-22T15:20:11.311Z,27.94
2019-03-22T15:22:51.714Z,28.60
2019-03-22T15:25:19.444Z,28.07
2019-03-22T15:27:47.202Z,27.63
2019-03-22T15:30:31.460Z,28.69
2019-03-22T15:33:11.083Z,29.02
2019-03-22T15:35:55.816Z,28.97
2019-03-22T15:38:26.997Z,28.39
2019-03-22T15:40:52.916Z,29.28
2019-03-22T15:43:18.765Z,28.47
2019-03-22T15:45:44.602Z,28.88
2019-03-22T15:48:10.424Z,29.07
2019-03-22T15:50:36.355Z,29.21
2019-03-22T15:53:02.230Z,28.24
2019-03-22T15:55:28.323Z,28.69
2019-03-22T15:57:54.163Z,28.75
2019-03-22T16:00:19.969Z,28.24
2019-03-22T16:02:46.086Z,28.90
2019-03-22T16:05:12.328Z,29.42
2019-03-22T16:07:38.160Z,30.10
2019-03-22T16:10:05.224Z,30.87
2019-03-22T16:12:31.129Z,30.88
2019-03-22T16:14:56.952Z,31.22
2019-03-22T16:17:22.771Z,31.66
2019-03-22T16:19:48.592Z,31.89
2019-03-22T16:22:14.424Z,31.65
2019-03-22T16:24:40.222Z,32.00
2019-03-22T16:27:06.311Z,32.08
2019-03-22T16:29:32.190Z,32.36
2019-03-22T16:31:58.301Z,32.48
2019-03-22T16:34:24.111Z,32.63
2019-03-22T16:36:49.943Z,33.26
2019-03-22T16:39:16.103Z,33.53
2019-03-22T16:41:41.907Z,33.77
2019-03-22T16:44:08.009Z,33.95
2019-03-22T16:46:33.841Z,33.92
2019-03-22T16:48:59.667Z,33.13
2019-03-22T16:51:25.755Z,34.17
2019-03-22T16:53:54.726Z,35.93
2019-03-22T16:56:20.833Z,35.75
2019-03-22T16:58:46.673Z,36.00
2019-03-22T17:03:45.133Z,37.05
2019-03-22T17:06:11.146Z,35.74
2019-03-22T17:08:36.994Z,35.22
2019-03-22T17:11:03.296Z,34.76
2019-03-22T17:13:31.967Z,35.03
2019-03-22T17:15:57.797Z,34.43
2019-03-22T17:18:23.748Z,35.54
2019-03-22T17:20:49.586Z,35.48
2019-03-22T17:23:15.710Z,36.85
2019-03-22T17:25:44.812Z,37.66
2019-03-22T17:28:10.738Z,37.66
2019-03-22T17:30:37.511Z,38.61
2019-03-22T17:33:03.370Z,38.49
2019-03-22T17:35:33.962Z,38.72
2019-03-22T17:38:00.075Z,38.43
2019-03-22T17:40:28.955Z,36.97
2019-03-22T17:42:54.898Z,38.40
2019-03-22T17:45:23.763Z,38.32
2019-03-22T17:47:49.570Z,39.04
2019-03-22T17:50:18.532Z,40.09
2019-03-22T17:52:44.599Z,40.27
2019-03-22T17:55:10.849Z,40.46
2019-03-22T17:57:36.687Z,40.97
2019-03-22T18:00:09.281Z,41.84
2019-03-22T18:02:35.460Z,42.72
2019-03-22T18:05:01.401Z,42.85
2019-03-22T18:07:27.221Z,42.98
2019-03-22T18:09:53.072Z,43.55
2019-03-22T18:12:18.877Z,42.82
2019-03-22T18:14:44.842Z,44.21
2019-03-22T18:17:12.378Z,44.70
2019-03-22T18:19:38.523Z,44.95
2019-03-22T18:22:06.751Z,45.46
2019-03-22T18:24:32.853Z,45.20
2019-03-22T18:27:02.014Z,45.79
2019-03-22T18:29:28.109Z,46.42
2019-03-22T18:31:53.946Z,46.85
2019-03-22T18:34:19.796Z,46.86
2019-03-22T18:36:45.629Z,46.52
2019-03-22T18:39:14.712Z,45.80
2019-03-22T18:41:40.838Z,45.73
2019-03-22T18:44:09.551Z,46.15
2019-03-22T18:46:35.371Z,45.59
2019-03-22T18:49:02.601Z,45.87
2019-03-22T18:51:28.707Z,46.64
2019-03-22T18:53:59.416Z,46.75
2019-03-22T18:56:25.509Z,46.69
2019-03-22T18:58:54.613Z,46.81
2019-03-22T19:01:20.440Z,49.29
2019-03-22T19:03:49.352Z,50.24
2019-03-22T19:06:15.462Z,50.76
2019-03-22T19:08:41.290Z,50.65
2019-03-22T19:11:07.371Z,50.91
2019-03-22T19:13:33.452Z,51.59
2019-03-22T19:15:59.668Z,52.28
2019-03-22T19:18:25.767Z,52.46
2019-03-22T19:20:55.451Z,52.64
2019-03-22T19:23:21.543Z,52.94
2019-03-22T19:25:50.463Z,53.18
2019-03-22T19:28:16.581Z,53.42
2019-03-22T19:30:42.431Z,53.63
2019-03-22T19:33:08.283Z,53.38
2019-03-22T19:35:37.279Z,53.09
2019-03-22T19:38:03.086Z,53.47
2019-03-22T19:40:31.996Z,53.47
2019-03-22T19:42:57.838Z,53.31
2019-03-22T19:45:24.014Z,54.42
2019-03-22T19:47:50.111Z,55.23
2019-03-22T19:50:16.443Z,55.28
2019-03-22T19:52:45.536Z,55.55
2019-03-22T19:55:11.484Z,55.63
2019-03-22T19:57:40.507Z,55.63
2019-03-22T20:00:12.030Z,55.60
2019-03-22T20:02:37.889Z,55.43
2019-03-22T20:05:05.499Z,55.18
2019-03-22T20:07:31.362Z,54.99
2019-03-22T20:09:57.443Z,55.03
2019-03-22T20:12:23.537Z,55.26
2019-03-22T20:14:49.688Z,55.16
2019-03-22T20:17:18.537Z,55.50
2019-03-22T20:19:44.379Z,55.85
2019-03-22T20:22:10.247Z,55.97
2019-03-22T20:24:36.236Z,55.86
2019-03-22T20:27:02.048Z,56.01
2019-03-22T20:29:30.655Z,56.01
2019-03-22T20:31:56.792Z,56.65
2019-03-22T20:34:25.685Z,57.12
2019-03-22T20:36:51.490Z,57.42
2019-03-22T20:39:20.338Z,57.45
2019-03-22T20:41:46.476Z,57.37
2019-03-22T20:44:13.494Z,57.29
2019-03-22T20:46:39.308Z,57.50
2019-03-22T20:49:10.123Z,57.13
2019-03-22T20:51:35.924Z,57.41
2019-03-22T20:54:04.666Z,57.56
2019-03-22T20:56:30.483Z,57.57
2019-03-22T20:58:56.300Z,57.91
2019-03-22T21:01:22.353Z,58.43
2019-03-22T21:03:48.312Z,59.10
2019-03-22T21:06:17.317Z,59.29
2019-03-22T21:08:43.136Z,59.39
2019-03-22T21:11:12.056Z,59.23
2019-03-22T21:13:37.883Z,59.15
2019-03-22T21:16:06.774Z,59.60
2019-03-22T21:18:32.619Z,59.62
2019-03-22T21:20:59.607Z,59.86
2019-03-22T21:23:35.707Z,60.22
2019-03-22T21:25:55.996Z,60.49
2019-03-22T21:28:22.119Z,61.01
2019-03-22T21:30:48.133Z,61.23
2019-03-22T21:33:13.953Z,61.57
2019-03-22T21:35:39.786Z,61.67
2019-03-22T21:38:10.921Z,62.15
2019-03-22T21:40:33.707Z,61.83
2019-03-22T21:43:03.128Z,61.95
2019-03-22T21:45:28.997Z,62.29
2019-03-22T21:47:54.937Z,62.37
2019-03-22T21:50:20.757Z,62.21
2019-03-22T21:52:51.320Z,62.25
2019-03-22T21:55:17.397Z,62.33
2019-03-22T21:57:45.955Z,62.59
2019-03-22T22:00:13.022Z,62.80
2019-03-22T22:02:38.933Z,62.94
2019-03-22T22:05:05.480Z,63.13
2019-03-22T22:07:34.873Z,63.44
2019-03-22T22:10:00.709Z,63.76
2019-03-22T22:12:26.542Z,63.97
2019-03-22T22:14:52.354Z,64.19
2019-03-22T22:17:18.158Z,64.18
2019-03-22T22:19:47.078Z,64.36
2019-03-22T22:22:12.968Z,64.39
2019-03-22T22:24:41.871Z,64.18
2019-03-22T22:27:13.805Z,64.14
2019-03-22T22:29:35.763Z,64.04
2019-03-22T22:32:01.903Z,64.28
2019-03-22T22:34:30.770Z,64.42
2019-03-22T22:36:56.874Z,64.53
2019-03-22T22:39:25.480Z,64.26
2019-03-22T22:41:51.326Z,64.38
2019-03-22T22:44:20.231Z,64.82
2019-03-22T22:46:46.058Z,64.84
2019-03-22T22:49:12.082Z,65.08
2019-03-22T22:51:37.907Z,65.08
2019-03-22T22:54:03.734Z,65.31
2019-03-22T22:56:32.461Z,65.49
2019-03-22T22:58:58.216Z,65.73
2019-03-22T23:01:27.085Z,66.42
2019-03-22T23:03:53.197Z,66.90
2019-03-22T23:06:20.534Z,66.95
2019-03-22T23:08:46.440Z,66.87
2019-03-22T23:11:15.169Z,66.46
2019-03-22T23:13:41.277Z,66.78
2019-03-22T23:16:10.118Z,66.93
2019-03-22T23:18:35.930Z,67.11
2019-03-22T23:21:05.116Z,67.64
2019-03-22T23:23:31.226Z,67.74
2019-03-22T23:25:57.026Z,67.86
2019-03-22T23:28:22.872Z,67.77
2019-03-22T23:30:48.955Z,68.09
2019-03-22T23:33:18.056Z,68.21
2019-03-22T23:35:44.197Z,68.15
2019-03-22T23:38:12.783Z,67.99
2019-03-22T23:40:38.628Z,67.98
2019-03-22T23:43:05.746Z,68.10
2019-03-22T23:45:31.598Z,68.25
2019-03-22T23:48:02.086Z,68.17
2019-03-22T23:50:27.892Z,68.58
2019-03-22T23:52:54.991Z,68.83
2019-03-22T23:55:20.841Z,68.82
2019-03-22T23:57:49.740Z,68.29
